Time;durP1;ratioP1;P1;durP2;ratioP2;P2;SDS_P1;SDS_P2;PMS_P1;PMS_P2;Temp;Humidity;BMP_temperature;BMP_pressure;BME280_temperature;BME280_humidity;BME280_pressure;Samples;Min_cycle;Max_cycle;Signal;HPM_P1;HPM_P2
2022/11/25 00:02:23;;;;;;;;;;;;;;;;;;10316189;28;19981;-64
2022/11/25 00:07:26;;;;;;;;;;;;;;;;;;10334062;28;20328;-63
2022/11/25 00:12:28;;;;;;;;;;;;;;;;;;10288989;28;19926;-63
2022/11/25 00:17:30;;;;;;;;;;;;;;;;;;10334606;28;20394;-63
2022/11/25 00:22:32;;;;;;;;;;;;;;;;;;10332997;28;19925;-63
2022/11/25 00:27:34;;;;;;;;;;;;;;;;;;10334972;28;19934;-63
2022/11/25 00:32:36;;;;;;;;;;;;;;;;;;10330595;28;19926;-64
2022/11/25 00:37:38;;;;;;;;;;;;;;;;;;10333213;28;19925;-64
2022/11/25 00:48:01;;;;;;;;;;;;;;;;;;10334334;28;19926;-64
2022/11/25 00:53:03;;;;;;;;;;;;;;;;;;10332015;28;19973;-64
2022/11/25 00:58:05;;;;;;;;;;;;;;;;;;10334398;28;19937;-64
2022/11/25 01:03:07;;;;;;;;;;;;;;;;;;10330652;28;19930;-64
2022/11/25 01:08:09;;;;;;;;;;;;;;;;;;10331828;28;19926;-64
2022/11/25 01:13:11;;;;;;;;;;;;;;;;;;10333605;28;19925;-64
2022/11/25 01:18:13;;;;;;;;;;;;;;;;;;10341296;28;20369;-64
2022/11/25 01:23:17;;;;;;;;;;;;;;;;;;10341103;28;19926;-64
2022/11/25 01:28:19;;;;;;;;;;;;;;;;;;10339106;28;19926;-64
2022/11/25 01:33:21;;;;;;;;;;;;;;;;;;10340721;28;19926;-64
2022/11/25 01:38:23;;;;;;;;;;;;;;;;;;10339039;28;19926;-64
2022/11/25 01:43:25;;;;;;;;;;;;;;;;;;10340893;28;19930;-63
2022/11/25 01:48:27;;;;;;;;;;;;;;;;;;10338810;28;19926;-64
2022/11/25 01:53:29;;;;;;;;;;;;;;;;;;10339862;28;20332;-64
2022/11/25 01:58:31;;;;;;;;;;;;;;;;;;10337832;28;20289;-64
2022/11/25 02:03:33;;;;;;;;;;;;;;;;;;10339498;28;19948;-63
2022/11/25 02:08:35;;;;;;;;;;;;;;;;;;10336489;28;19929;-64
2022/11/25 02:13:38;;;;;;;;;;;;;;;;;;10339193;28;19932;-64
2022/11/25 02:18:40;;;;;;;;;;;;;;;;;;10338471;28;19932;-63
2022/11/25 02:23:42;;;;;;;;;;;;;;;;;;10337879;28;19946;-64
2022/11/25 02:28:44;;;;;;;;;;;;;;;;;;10331911;28;19933;-64
2022/11/25 02:33:46;;;;;;;;;;;;;;;;;;10335468;28;19930;-63
2022/11/25 02:38:48;;;;;;;;;;;;;;;;;;10338194;28;19949;-64
2022/11/25 02:43:50;;;;;;;;;;;;;;;;;;10335115;28;19934;-64
2022/11/25 02:48:52;;;;;;;;;;;;;;;;;;10338049;28;19976;-64
2022/11/25 02:54:09;;;;;;;;;;;;;;;;;;10328180;28;19926;-64
2022/11/25 02:59:11;;;;;;;;;;;;;;;;;;10297192;28;20373;-64
2022/11/25 03:04:13;;;;;;;;;;;;;;;;;;10306671;28;19926;-64
2022/11/25 03:09:15;;;;;;;;;;;;;;;;;;10337660;28;19934;-64
2022/11/25 03:14:17;;;;;;;;;;;;;;;;;;10334337;28;19926;-64
2022/11/25 03:19:19;;;;;;;;;;;;;;;;;;10336539;28;19925;-64
2022/11/25 03:24:21;;;;;;;;;;;;;;;;;;10333846;28;20348;-63
2022/11/25 03:29:23;;;;;;;;;;;;;;;;;;10317696;28;19930;-63
2022/11/25 03:34:25;;;;;;;;;;;;;;;;;;10320416;28;19930;-64
2022/11/25 03:39:28;;;;;;;;;;;;;;;;;;10295389;28;20277;-63
2022/11/25 03:44:30;;;;;;;;;;;;;;;;;;10311628;28;20274;-64
2022/11/25 03:49:32;;;;;;;;;;;;;;;;;;10335654;28;19973;-64
2022/11/25 03:54:34;;;;;;;;;;;;;;;;;;10333925;28;20301;-63
2022/11/25 03:59:36;;;;;;;;;;;;;;;;;;10335770;28;19936;-63
2022/11/25 04:04:38;;;;;;;;;;;;;;;;;;10314104;28;20304;-63
2022/11/25 04:09:40;;;;;;;;;;;;;;;;;;10335420;28;19933;-64
2022/11/25 04:14:42;;;;;;;;;;;;;;;;;;10312393;28;19926;-63
2022/11/25 04:19:44;;;;;;;;;;;;;;;;;;10295094;28;19926;-63
2022/11/25 04:24:46;;;;;;;;;;;;;;;;;;10314708;28;19952;-63
2022/11/25 04:29:48;;;;;;;;;;;;;;;;;;10334969;28;19972;-63
2022/11/25 04:34:50;;;;;;;;;;;;;;;;;;10333427;28;19926;-63
2022/11/25 04:39:52;;;;;;;;;;;;;;;;;;10333697;28;19926;-63
2022/11/25 04:44:54;;;;;;;;;;;;;;;;;;10332484;28;19948;-63
2022/11/25 04:50:17;;;;;;;;;;;;;;;;;;10338190;28;20349;-63
2022/11/25 04:55:19;;;;;;;;;;;;;;;;;;10341348;28;19932;-63
2022/11/25 05:00:21;;;;;;;;;;;;;;;;;;10342608;28;19926;-63
2022/11/25 05:05:23;;;;;;;;;;;;;;;;;;10339815;28;19926;-63
2022/11/25 05:10:25;;;;;;;;;;;;;;;;;;10341604;28;19926;-63
2022/11/25 05:15:27;;;;;;;;;;;;;;;;;;10340575;28;19951;-63
2022/11/25 05:20:29;;;;;;;;;;;;;;;;;;10339758;28;19980;-64
2022/11/25 05:25:32;;;;;;;;;;;;;;;;;;10336786;28;19933;-64
2022/11/25 05:30:34;;;;;;;;;;;;;;;;;;10340770;28;19933;-64
2022/11/25 05:35:36;;;;;;;;;;;;;;;;;;10323244;28;19961;-63
2022/11/25 05:40:38;;;;;;;;;;;;;;;;;;10339240;28;19930;-63
2022/11/25 05:45:40;;;;;;;;;;;;;;;;;;10339409;28;19933;-63
2022/11/25 05:50:42;;;;;;;;;;;;;;;;;;10340121;28;20008;-64
2022/11/25 05:55:44;;;;;;;;;;;;;;;;;;10338464;28;19925;-63
2022/11/25 06:00:46;;;;;;;;;;;;;;;;;;10330606;28;19930;-64
2022/11/25 06:05:48;;;;;;;;;;;;;;;;;;10448768;22;19924;-64
2022/11/25 06:10:50;;;;;;;;;;;;;;;;;;10462735;28;19925;-65
2022/11/25 06:15:52;;;;;;;;;;;;;;;;;;10461977;28;19963;-65
2022/11/25 06:20:54;;;;;;;;;;;;;;;;;;10460987;28;19932;-65
2022/11/25 06:25:56;;;;;;;;;;;;;;;;;;10461449;28;19925;-65
2022/11/25 06:30:59;;;;;;;;;;;;;;;;;;10460345;28;19951;-65
2022/11/25 06:36:01;;;;;;;;;;;;;;;;;;10461164;28;20021;-65
2022/11/25 06:41:03;;;;;;;;;;;;;;;;;;10442568;28;19948;-65
2022/11/25 06:46:05;;;;;;;;;;;;;;;;;;10461231;28;19924;-65
2022/11/25 06:51:08;;;;;;;;;;;;;;;;;;10460429;28;19935;-65
2022/11/25 06:56:10;;;;;;;;;;;;;;;;;;10460273;28;20513;-65
2022/11/25 07:01:12;;;;;;;;;;;;;;;;;;10456437;28;19947;-65
2022/11/25 07:06:14;;;;;;;;;;;;;;;;;;10459612;28;19986;-65
2022/11/25 07:11:16;;;;;;;;;;;;;;;;;;10458526;28;20346;-65
2022/11/25 07:16:18;;;;;;;;;;;;;;;;;;10460177;28;19929;-64
2022/11/25 07:21:20;;;;;;;;;;;;;;;;;;10458584;28;20299;-64
2022/11/25 07:26:22;;;;;;;;;;;;;;;;;;10459042;28;20392;-65
2022/11/25 07:31:24;;;;;;;;;;;;;;;;;;10458194;28;19925;-65
2022/11/25 07:36:33;;;;;;;;;;;;;;;;;;10455369;28;19925;-65
2022/11/25 07:41:35;;;;;;;;;;;;;;;;;;10458497;28;19924;-65
2022/11/25 07:46:38;;;;;;;;;;;;;;;;;;10456548;28;20392;-65
2022/11/25 07:51:40;;;;;;;;;;;;;;;;;;10458200;28;20003;-65
2022/11/25 07:56:43;;;;;;;;;;;;;;;;;;10457022;28;19987;-65
2022/11/25 08:01:45;;;;;;;;;;;;;;;;;;10457296;28;19924;-65
2022/11/25 08:06:47;;;;;;;;;;;;;;;;;;10456399;28;19936;-65
2022/11/25 08:11:49;;;;;;;;;;;;;;;;;;10457478;28;19925;-65
2022/11/25 08:16:51;;;;;;;;;;;;;;;;;;10457335;28;20380;-65
2022/11/25 08:21:54;;;;;;;;;;;;;;;;;;10456971;28;19951;-65
2022/11/25 08:27:00;;;;;;;;;;;;;;;;;;10454659;28;20284;-65
2022/11/25 08:32:02;;;;;;;;;;;;;;;;;;10457197;28;19931;-64
2022/11/25 08:37:08;;;;;;;;;;;;;;;;;;10456723;28;19933;-64
2022/11/25 08:42:10;;;;;;;;;;;;;;;;;;10456782;28;19986;-64
2022/11/25 08:47:12;;;;;;;;;;;;;;;;;;10456831;28;19925;-64
2022/11/25 08:52:14;;;;;;;;;;;;;;;;;;10457176;28;19925;-64
2022/11/25 08:57:16;;;;;;;;;;;;;;;;;;10456981;28;19924;-64
2022/11/25 09:02:18;;;;;;;;;;;;;;;;;;10454962;28;19925;-65
2022/11/25 09:07:20;;;;;;;;;;;;;;;;;;10456206;28;20272;-65
2022/11/25 09:12:27;;;;;;;;;;;;;;;;;;10456839;28;19929;-65
2022/11/25 09:17:29;;;;;;;;;;;;;;;;;;10456079;28;19933;-65
2022/11/25 09:22:31;;;;;;;;;;;;;;;;;;10455973;28;20327;-65
2022/11/25 09:27:33;;;;;;;;;;;;;;;;;;10456436;28;19929;-65
2022/11/25 09:32:35;;;;;;;;;;;;;;;;;;10455773;28;20327;-66
2022/11/25 09:37:37;;;;;;;;;;;;;;;;;;10462477;28;19925;-66
2022/11/25 09:48:00;;;;;;;;;;;;;;;;;;10463612;28;19925;-65
2022/11/25 09:53:02;;;;;;;;;;;;;;;;;;10462823;28;20318;-65
2022/11/25 09:58:04;;;;;;;;;;;;;;;;;;10462166;28;19970;-65
2022/11/25 10:03:06;;;;;;;;;;;;;;;;;;10462611;28;19970;-65
2022/11/25 10:08:08;;;;;;;;;;;;;;;;;;10462144;28;19925;-65
2022/11/25 10:13:10;;;;;;;;;;;;;;;;;;10462624;28;19925;-65
2022/11/25 10:18:12;;;;;;;;;;;;;;;;;;10461845;28;20276;-65
2022/11/25 10:23:14;;;;;;;;;;;;;;;;;;10462167;28;19925;-65
2022/11/25 10:28:17;;;;;;;;;;;;;;;;;;10461373;28;20426;-65
2022/11/25 10:33:22;;;;;;;;;;;;;;;;;;10461861;28;19929;-65
2022/11/25 10:38:24;;;;;;;;;;;;;;;;;;10461062;28;19947;-65
2022/11/25 10:43:26;;;;;;;;;;;;;;;;;;10461504;28;19974;-65
2022/11/25 10:48:33;;;;;;;;;;;;;;;;;;10459792;28;19975;-65
2022/11/25 10:53:35;;;;;;;;;;;;;;;;;;10461065;28;19978;-65
2022/11/25 10:58:37;;;;;;;;;;;;;;;;;;10460869;28;19925;-65
2022/11/25 11:03:39;;;;;;;;;;;;;;;;;;10460532;28;19979;-65
2022/11/25 11:08:42;;;;;;;;;;;;;;;;;;10459751;28;20372;-65
2022/11/25 11:13:44;;;;;;;;;;;;;;;;;;10459153;28;19924;-65
2022/11/25 11:18:46;;;;;;;;;;;;;;;;;;10459405;28;19925;-65
2022/11/25 11:23:48;;;;;;;;;;;;;;;;;;10459868;28;19924;-66
2022/11/25 11:28:50;;;;;;;;;;;;;;;;;;10458947;28;19925;-65
2022/11/25 11:33:52;;;;;;;;;;;;;;;;;;10459432;28;19929;-65
2022/11/25 11:38:55;;;;;;;;;;;;;;;;;;10459273;28;19924;-65
2022/11/25 11:43:57;;;;;;;;;;;;;;;;;;10457332;28;20399;-65
2022/11/25 11:48:59;;;;;;;;;;;;;;;;;;10458824;28;19983;-65
2022/11/25 11:54:01;;;;;;;;;;;;;;;;;;10458109;28;20371;-65
2022/11/25 11:59:03;;;;;;;;;;;;;;;;;;10458323;28;19925;-65
2022/11/25 12:04:05;;;;;;;;;;;;;;;;;;10458168;28;19925;-65
2022/11/25 12:09:07;;;;;;;;;;;;;;;;;;10457683;28;20331;-65
2022/11/25 12:14:10;;;;;;;;;;;;;;;;;;10458074;28;19929;-65
2022/11/25 12:19:12;;;;;;;;;;;;;;;;;;10457297;28;20272;-65
2022/11/25 12:24:14;;;;;;;;;;;;;;;;;;10457157;28;20372;-65
2022/11/25 12:29:16;;;;;;;;;;;;;;;;;;10456953;28;19925;-65
2022/11/25 12:34:18;;;;;;;;;;;;;;;;;;10457551;28;19929;-65
2022/11/25 12:39:20;;;;;;;;;;;;;;;;;;10457444;28;19978;-65
2022/11/25 12:44:22;;;;;;;;;;;;;;;;;;10456737;28;20253;-65
2022/11/25 12:49:24;;;;;;;;;;;;;;;;;;10457275;28;19924;-65
2022/11/25 12:54:26;;;;;;;;;;;;;;;;;;10457214;28;19932;-65
2022/11/25 12:59:28;;;;;;;;;;;;;;;;;;10456481;28;19925;-65
2022/11/25 13:04:30;;;;;;;;;;;;;;;;;;10455460;28;19935;-65
2022/11/25 13:09:32;;;;;;;;;;;;;;;;;;10457851;28;19925;-65
2022/11/25 13:14:34;;;;;;;;;;;;;;;;;;10464280;28;20445;-65
2022/11/25 13:19:37;;;;;;;;;;;;;;;;;;10464114;28;20363;-65
2022/11/25 13:24:39;;;;;;;;;;;;;;;;;;10464523;28;19944;-65
2022/11/25 13:29:41;;;;;;;;;;;;;;;;;;10463723;28;19948;-65
2022/11/25 13:34:43;;;;;;;;;;;;;;;;;;10464197;28;19925;-66
2022/11/25 13:39:45;;;;;;;;;;;;;;;;;;10463377;28;20322;-66
2022/11/25 13:44:47;;;;;;;;;;;;;;;;;;10463765;28;19978;-66
2022/11/25 13:49:50;;;;;;;;;;;;;;;;;;10463653;28;19925;-66
2022/11/25 13:54:54;;;;;;;;;;;;;;;;;;10463381;28;19925;-65
2022/11/25 13:59:57;;;;;;;;;;;;;;;;;;10462554;28;20372;-65
2022/11/25 14:04:59;;;;;;;;;;;;;;;;;;10462213;28;19925;-65
2022/11/25 14:10:01;;;;;;;;;;;;;;;;;;10462193;28;20445;-65
2022/11/25 14:15:03;;;;;;;;;;;;;;;;;;10462662;28;19925;-65
2022/11/25 14:20:05;;;;;;;;;;;;;;;;;;10462383;28;19925;-65
2022/11/25 14:25:07;;;;;;;;;;;;;;;;;;10462158;28;19931;-65
2022/11/25 14:30:09;;;;;;;;;;;;;;;;;;10461430;28;19929;-66
2022/11/25 14:35:11;;;;;;;;;;;;;;;;;;10461203;28;19928;-66
2022/11/25 14:40:13;;;;;;;;;;;;;;;;;;10461225;28;19925;-66
2022/11/25 14:45:15;;;;;;;;;;;;;;;;;;10461412;28;19928;-66
2022/11/25 14:50:17;;;;;;;;;;;;;;;;;;10461291;28;19925;-66
2022/11/25 14:55:36;;;;;;;;;;;;;;;;;;10460457;28;20338;-66
2022/11/25 15:00:38;;;;;;;;;;;;;;;;;;10460209;28;20287;-66
2022/11/25 15:05:40;;;;;;;;;;;;;;;;;;10460217;28;19929;-66
2022/11/25 15:10:42;;;;;;;;;;;;;;;;;;10459809;28;20380;-66
2022/11/25 15:15:44;;;;;;;;;;;;;;;;;;10459626;28;20331;-66
2022/11/25 15:20:46;;;;;;;;;;;;;;;;;;10458974;28;19964;-66
2022/11/25 15:25:48;;;;;;;;;;;;;;;;;;10459097;28;20433;-66
2022/11/25 15:30:50;;;;;;;;;;;;;;;;;;10459064;28;20077;-66
2022/11/25 15:35:52;;;;;;;;;;;;;;;;;;10458842;28;19925;-66
2022/11/25 15:40:55;;;;;;;;;;;;;;;;;;10459216;28;19979;-65
2022/11/25 15:45:57;;;;;;;;;;;;;;;;;;10458893;28;19933;-65
2022/11/25 15:50:59;;;;;;;;;;;;;;;;;;10458720;28;19971;-65
2022/11/25 15:56:01;;;;;;;;;;;;;;;;;;10457996;28;20342;-65
2022/11/25 16:01:03;;;;;;;;;;;;;;;;;;10457812;28;20348;-65
2022/11/25 16:06:05;;;;;;;;;;;;;;;;;;10457278;28;19925;-65
2022/11/25 16:11:07;;;;;;;;;;;;;;;;;;10454931;28;20380;-65
2022/11/25 16:16:09;;;;;;;;;;;;;;;;;;10452700;28;19925;-65
2022/11/25 16:21:12;;;;;;;;;;;;;;;;;;10457739;28;19928;-65
2022/11/25 16:26:14;;;;;;;;;;;;;;;;;;10456619;28;19978;-65
2022/11/25 16:31:16;;;;;;;;;;;;;;;;;;10447056;28;20288;-64
2022/11/25 16:36:18;;;;;;;;;;;;;;;;;;10417595;28;19924;-65
2022/11/25 16:41:20;;;;;;;;;;;;;;;;;;10455369;28;19925;-65
2022/11/25 16:46:22;;;;;;;;;;;;;;;;;;10461980;28;19929;-65
2022/11/25 16:51:24;;;;;;;;;;;;;;;;;;10463991;28;19931;-65
2022/11/25 16:56:26;;;;;;;;;;;;;;;;;;10464894;28;19978;-63
2022/11/25 17:01:28;;;;;;;;;;;;;;;;;;10464838;28;19925;-64
2022/11/25 17:06:31;;;;;;;;;;;;;;;;;;10462994;28;19925;-64
2022/11/25 17:11:33;;;;;;;;;;;;;;;;;;10463723;28;20315;-64
2022/11/25 17:16:35;;;;;;;;;;;;;;;;;;10462142;28;19925;-64
2022/11/25 17:21:37;;;;;;;;;;;;;;;;;;10463343;28;20403;-64
2022/11/25 17:26:39;;;;;;;;;;;;;;;;;;10463677;28;19932;-63
2022/11/25 17:31:41;;;;;;;;;;;;;;;;;;10458545;28;19987;-64
2022/11/25 17:36:43;;;;;;;;;;;;;;;;;;10463930;28;19928;-64
2022/11/25 17:41:45;;;;;;;;;;;;;;;;;;10463095;28;20334;-64
2022/11/25 17:46:47;;;;;;;;;;;;;;;;;;10462353;28;20441;-63
2022/11/25 17:51:49;;;;;;;;;;;;;;;;;;10461917;28;19925;-63
2022/11/25 17:56:51;;;;;;;;;;;;;;;;;;10462852;28;19929;-63
2022/11/25 18:01:57;;;;;;;;;;;;;;;;;;10457837;28;20327;-64
2022/11/25 18:07:00;;;;;;;;;;;;;;;;;;10460609;28;20015;-63
2022/11/25 18:12:02;;;;;;;;;;;;;;;;;;10462070;28;20380;-63
2022/11/25 18:17:04;;;;;;;;;;;;;;;;;;10473098;22;19935;-64
2022/11/25 18:22:06;;;;;;;;;;;;;;;;;;10500737;28;20325;-65
2022/11/25 18:27:08;;;;;;;;;;;;;;;;;;10485752;28;19925;-65
2022/11/25 18:32:10;;;;;;;;;;;;;;;;;;10499984;28;20284;-65
2022/11/25 18:37:12;;;;;;;;;;;;;;;;;;10501225;28;19924;-65
2022/11/25 18:42:14;;;;;;;;;;;;;;;;;;10500585;28;19924;-65
2022/11/25 18:47:16;;;;;;;;;;;;;;;;;;10501932;28;19978;-65
2022/11/25 18:52:18;;;;;;;;;;;;;;;;;;10501497;28;19931;-65
2022/11/25 18:57:20;;;;;;;;;;;;;;;;;;10500489;28;19924;-65
2022/11/25 19:02:22;;;;;;;;;;;;;;;;;;10499361;28;19928;-65
2022/11/25 19:07:25;;;;;;;;;;;;;;;;;;10500244;28;20322;-65
2022/11/25 19:12:27;;;;;;;;;;;;;;;;;;10500935;28;20030;-65
2022/11/25 19:17:29;;;;;;;;;;;;;;;;;;10500706;28;19932;-65
2022/11/25 19:22:31;;;;;;;;;;;;;;;;;;10500582;28;19929;-65
2022/11/25 19:27:33;;;;;;;;;;;;;;;;;;10500228;28;20311;-65
2022/11/25 19:32:35;;;;;;;;;;;;;;;;;;10500858;28;19924;-65
2022/11/25 19:37:37;;;;;;;;;;;;;;;;;;10499226;28;19990;-65
2022/11/25 19:42:40;;;;;;;;;;;;;;;;;;10495652;28;19974;-65
2022/11/25 19:47:42;;;;;;;;;;;;;;;;;;10492691;28;19960;-65
2022/11/25 19:52:44;;;;;;;;;;;;;;;;;;10480076;28;19932;-65
2022/11/25 19:57:48;;;;;;;;;;;;;;;;;;10495739;28;20085;-65
2022/11/25 20:02:50;;;;;;;;;;;;;;;;;;10498936;28;19986;-65
2022/11/25 20:07:52;;;;;;;;;;;;;;;;;;10476117;28;19929;-65
2022/11/25 20:12:54;;;;;;;;;;;;;;;;;;10498235;28;20026;-65
2022/11/25 20:17:56;;;;;;;;;;;;;;;;;;10496005;28;19979;-65
2022/11/25 20:22:58;;;;;;;;;;;;;;;;;;10496122;28;19925;-65
2022/11/25 20:28:00;;;;;;;;;;;;;;;;;;10478933;28;19975;-65
2022/11/25 20:33:02;;;;;;;;;;;;;;;;;;10496816;28;19951;-65
2022/11/25 20:38:04;;;;;;;;;;;;;;;;;;10496307;28;19978;-65
2022/11/25 20:43:06;;;;;;;;;;;;;;;;;;10497480;28;20391;-65
2022/11/25 20:48:09;;;;;;;;;;;;;;;;;;10478464;28;19978;-65
2022/11/25 20:53:11;;;;;;;;;;;;;;;;;;10496805;28;20406;-65
2022/11/25 20:58:16;;;;;;;;;;;;;;;;;;10495278;28;19928;-65
2022/11/25 21:03:18;;;;;;;;;;;;;;;;;;10496808;28;19924;-65
2022/11/25 21:08:23;;;;;;;;;;;;;;;;;;10495582;28;19978;-64
2022/11/25 21:13:25;;;;;;;;;;;;;;;;;;10496921;28;20291;-64
2022/11/25 21:18:27;;;;;;;;;;;;;;;;;;10495484;28;19924;-64
2022/11/25 21:23:29;;;;;;;;;;;;;;;;;;10496296;28;19924;-64
2022/11/25 21:28:31;;;;;;;;;;;;;;;;;;10477180;28;19925;-64
2022/11/25 21:33:33;;;;;;;;;;;;;;;;;;10502396;28;19928;-64
2022/11/25 21:38:35;;;;;;;;;;;;;;;;;;10504255;28;19925;-65
2022/11/25 21:43:38;;;;;;;;;;;;;;;;;;10503446;28;19928;-65
2022/11/25 21:48:40;;;;;;;;;;;;;;;;;;10504013;28;19977;-64
2022/11/25 21:53:42;;;;;;;;;;;;;;;;;;10502994;28;20341;-64
2022/11/25 21:58:44;;;;;;;;;;;;;;;;;;10499797;28;19932;-65
2022/11/25 22:03:46;;;;;;;;;;;;;;;;;;10500242;28;20473;-65
2022/11/25 22:08:48;;;;;;;;;;;;;;;;;;10503879;28;19954;-65
2022/11/25 22:13:50;;;;;;;;;;;;;;;;;;10503511;28;20345;-65
2022/11/25 22:18:52;;;;;;;;;;;;;;;;;;10502355;28;20386;-65
2022/11/25 22:23:54;;;;;;;;;;;;;;;;;;10503987;28;19933;-64
2022/11/25 22:28:56;;;;;;;;;;;;;;;;;;10502750;28;19929;-65
2022/11/25 22:33:58;;;;;;;;;;;;;;;;;;10503340;28;19970;-65
2022/11/25 22:39:00;;;;;;;;;;;;;;;;;;10502483;28;19989;-64
2022/11/25 22:44:03;;;;;;;;;;;;;;;;;;10501079;28;19925;-64
2022/11/25 22:49:05;;;;;;;;;;;;;;;;;;10502605;28;19924;-64
2022/11/25 22:54:07;;;;;;;;;;;;;;;;;;10502583;28;19942;-64
2022/11/25 22:59:09;;;;;;;;;;;;;;;;;;10500809;28;20314;-64
2022/11/25 23:04:11;;;;;;;;;;;;;;;;;;10502021;28;19924;-65
2022/11/25 23:09:13;;;;;;;;;;;;;;;;;;10501145;28;19931;-64
2022/11/25 23:14:15;;;;;;;;;;;;;;;;;;10501652;28;19924;-64
2022/11/25 23:19:17;;;;;;;;;;;;;;;;;;10500910;28;19924;-65
2022/11/25 23:24:19;;;;;;;;;;;;;;;;;;10499084;28;20342;-64
2022/11/25 23:29:21;;;;;;;;;;;;;;;;;;10500904;28;19971;-64
2022/11/25 23:34:23;;;;;;;;;;;;;;;;;;10483109;28;19935;-65
2022/11/25 23:39:25;;;;;;;;;;;;;;;;;;10499212;28;20375;-64
2022/11/25 23:44:27;;;;;;;;;;;;;;;;;;10499013;28;19946;-64
2022/11/25 23:49:30;;;;;;;;;;;;;;;;;;10498867;28;19942;-64
2022/11/25 23:54:38;;;;;;;;;;;;;;;;;;10499076;28;19986;-64
2022/11/25 23:59:41;;;;;;;;;;;;;;;;;;10499374;28;20358;-64
